Time;durP1;ratioP1;P1;durP2;ratioP2;P2;SDS_P1;SDS_P2;PMS_P1;PMS_P2;Temp;Humidity;BMP_temperature;BMP_pressure;BME280_temperature;BME280_humidity;BME280_pressure;Samples;Min_cycle;Max_cycle;Signal;HPM_P1;HPM_P2
2021/07/17 00:01:38;;;;;;;36.03;11.55;;;;;;;17.71;100.00;102041.09;5075695;28;20464;-81
2021/07/17 00:04:04;;;;;;;30.38;11.32;;;;;;;17.67;100.00;102040.56;5096121;28;20104;-78
2021/07/17 00:06:31;;;;;;;30.80;11.45;;;;;;;17.71;100.00;102038.44;5080910;28;20035;-78
2021/07/17 00:08:57;;;;;;;34.65;11.52;;;;;;;17.68;100.00;102041.41;5098631;28;20448;-79
2021/07/17 00:11:22;;;;;;;34.72;10.88;;;;;;;17.72;100.00;102040.06;5081684;28;20036;-79
2021/07/17 00:13:49;;;;;;;33.33;10.88;;;;;;;17.67;100.00;102042.41;5093169;28;20028;-79
2021/07/17 00:16:18;;;;;;;33.78;11.75;;;;;;;17.64;100.00;102037.41;5072527;28;20043;-79
2021/07/17 00:18:45;;;;;;;37.17;11.77;;;;;;;17.59;100.00;102045.03;5093400;28;20028;-79
2021/07/17 00:21:11;;;;;;;33.97;10.20;;;;;;;17.58;100.00;102041.53;5070855;28;20039;-78
2021/07/17 00:23:36;;;;;;;37.88;11.85;;;;;;;17.61;100.00;102037.72;5099676;28;20024;-78
2021/07/17 00:26:05;;;;;;;39.92;11.48;;;;;;;17.60;100.00;102036.09;5105438;28;20038;-78
2021/07/17 00:28:31;;;;;;;34.38;11.23;;;;;;;17.64;100.00;102037.41;5091159;28;20051;-79
2021/07/17 00:30:57;;;;;;;31.90;10.48;;;;;;;17.54;100.00;102034.06;5085018;28;20085;-78
2021/07/17 00:33:22;;;;;;;33.65;10.27;;;;;;;17.49;100.00;102037.19;5072624;28;20490;-78
2021/07/17 00:35:48;;;;;;;36.45;10.90;;;;;;;17.60;100.00;102033.44;5096034;28;20116;-79
2021/07/17 00:38:16;;;;;;;34.17;10.77;;;;;;;17.52;100.00;102036.88;5096983;28;20028;-78
2021/07/17 00:40:41;;;;;;;34.78;10.63;;;;;;;17.64;100.00;102040.06;5062295;28;20438;-79
2021/07/17 00:43:07;;;;;;;39.85;10.88;;;;;;;17.62;100.00;102034.91;5072129;28;20470;-75
2021/07/17 00:45:32;;;;;;;36.85;11.55;;;;;;;17.62;100.00;102032.25;5068296;28;20072;-78
2021/07/17 00:47:58;;;;;;;31.95;10.98;;;;;;;17.73;100.00;102043.59;5113072;28;20439;-78
2021/07/17 00:50:26;;;;;;;32.00;10.73;;;;;;;17.68;100.00;102038.75;5093210;28;20027;-80
2021/07/17 00:52:52;;;;;;;30.77;10.13;;;;;;;17.57;100.00;102044.34;5071420;28;20097;-80
2021/07/17 00:55:18;;;;;;;29.08;9.75;;;;;;;17.49;100.00;102045.97;5081297;28;20506;-78
2021/07/17 00:57:47;;;;;;;34.08;11.10;;;;;;;17.63;100.00;102044.56;5076575;28;20035;-79
2021/07/17 01:00:14;;;;;;;41.15;11.27;;;;;;;17.70;100.00;102045.53;5078485;28;20634;-79
2021/07/17 01:02:45;;;;;;;35.17;10.35;;;;;;;17.67;100.00;102047.72;5068045;28;20032;-79
2021/07/17 01:05:11;;;;;;;38.78;10.82;;;;;;;17.67;100.00;102043.22;5068257;28;20061;-79
2021/07/17 01:07:48;;;;;;;29.17;9.43;;;;;;;17.63;100.00;102038.41;5087025;28;20035;-79
2021/07/17 01:10:16;;;;;;;30.92;10.43;;;;;;;17.60;100.00;102039.56;5069571;28;20039;-80
2021/07/17 01:12:43;;;;;;;36.92;10.02;;;;;;;17.57;100.00;102045.16;5080021;28;20047;-79
2021/07/17 01:15:08;;;;;;;37.90;11.05;;;;;;;17.65;100.00;102044.38;5090569;28;20819;-77
2021/07/17 01:17:35;;;;;;;42.55;11.50;;;;;;;17.66;100.00;102044.22;5110739;28;20081;-80
2021/07/17 01:20:01;;;;;;;41.25;10.13;;;;;;;17.76;100.00;102036.09;5085318;28;20035;-81
2021/07/17 01:22:27;;;;;;;37.08;10.32;;;;;;;17.73;100.00;102048.91;5085138;28;20126;-80
2021/07/17 01:25:11;;;;;;;30.25;9.88;;;;;;;17.67;100.00;102048.53;5082528;28;20409;-79
2021/07/17 01:27:38;;;;;;;28.40;8.98;;;;;;;17.65;100.00;102052.31;5076319;28;20032;-79
2021/07/17 01:30:18;;;;;;;41.45;10.68;;;;;;;17.71;100.00;102046.41;5082440;28;20039;-78
2021/07/17 01:32:44;;;;;;;32.00;10.10;;;;;;;17.73;100.00;102052.38;5060056;28;20032;-79
2021/07/17 01:35:10;;;;;;;31.63;10.07;;;;;;;17.61;100.00;102048.34;5059826;28;20043;-81
2021/07/17 01:37:36;;;;;;;34.80;10.35;;;;;;;17.63;100.00;102047.22;5084645;28;20028;-79
2021/07/17 01:40:05;;;;;;;31.08;9.90;;;;;;;17.64;100.00;102046.19;5079310;28;20104;-78
2021/07/17 01:42:35;;;;;;;34.15;10.35;;;;;;;17.62;100.00;102045.53;5076184;28;20499;-78
2021/07/17 01:45:00;;;;;;;35.90;10.10;;;;;;;17.60;100.00;102047.50;5080601;28;20483;-79
2021/07/17 01:47:26;;;;;;;30.17;9.43;;;;;;;17.57;100.00;102055.78;5089963;28;20067;-78
2021/07/17 01:49:51;;;;;;;28.30;9.88;;;;;;;17.50;100.00;102052.13;5109166;28;20114;-79
2021/07/17 01:52:17;;;;;;;28.00;9.82;;;;;;;17.43;100.00;102046.63;5066716;28;20485;-80
2021/07/17 01:54:42;;;;;;;22.13;8.63;;;;;;;17.33;100.00;102053.91;5089255;28;20045;-79
2021/07/17 01:57:08;;;;;;;28.35;8.90;;;;;;;17.32;100.00;102044.25;5103498;28;20482;-80
2021/07/17 01:59:41;;;;;;;30.92;9.23;;;;;;;17.22;100.00;102038.28;5093562;28;20058;-80
2021/07/17 02:02:07;;;;;;;31.63;9.68;;;;;;;17.21;100.00;102031.28;5095671;28;20053;-80
2021/07/17 02:04:33;;;;;;;36.10;9.60;;;;;;;17.26;100.00;102037.78;5075076;28;20406;-78
2021/07/17 02:06:58;;;;;;;30.23;9.30;;;;;;;17.22;100.00;102038.28;5079924;28;20028;-80
2021/07/17 02:09:24;;;;;;;29.63;8.93;;;;;;;17.19;100.00;102049.19;5083797;28;20509;-80
2021/07/17 02:11:50;;;;;;;32.72;9.88;;;;;;;17.29;100.00;102049.88;5092466;28;20036;-80
2021/07/17 02:14:15;;;;;;;26.02;9.00;;;;;;;17.24;100.00;102050.38;5075153;28;20028;-79
2021/07/17 02:16:41;;;;;;;28.15;9.77;;;;;;;17.13;100.00;102050.63;5070465;28;20039;-80
2021/07/17 02:19:21;;;;;;;26.95;8.80;;;;;;;17.08;100.00;102044.97;5067235;28;20032;-80
2021/07/17 02:21:51;;;;;;;26.42;9.95;;;;;;;17.03;100.00;102039.34;5096131;28;20028;-81
2021/07/17 02:24:18;;;;;;;27.80;9.43;;;;;;;16.96;100.00;102033.00;5072300;28;20035;-80
2021/07/17 02:26:47;;;;;;;29.10;9.30;;;;;;;16.99;100.00;102044.13;5087551;28;20035;-81
2021/07/17 02:29:14;;;;;;;25.27;9.23;;;;;;;16.91;100.00;102030.78;5073235;28;20032;-81
2021/07/17 02:31:41;;;;;;;27.15;9.45;;;;;;;17.14;100.00;102039.06;5074435;28;20028;-81
2021/07/17 02:34:11;;;;;;;40.20;11.10;;;;;;;17.02;100.00;102025.22;5089650;28;20049;-80
2021/07/17 02:36:38;;;;;;;28.75;11.40;;;;;;;17.15;100.00;102039.88;5073120;28;20036;-80
2021/07/17 02:39:08;;;;;;;32.80;10.35;;;;;;;17.19;100.00;102050.00;5075660;28;20039;-80
2021/07/17 02:41:34;;;;;;;26.20;9.38;;;;;;;17.12;100.00;102043.66;5058962;28;20408;-80
2021/07/17 02:43:59;;;;;;;31.05;10.10;;;;;;;17.08;100.00;102048.47;5059120;28;20096;-79
2021/07/17 02:46:25;;;;;;;30.15;12.02;;;;;;;17.26;100.00;102043.06;5068223;28;20038;-80
2021/07/17 02:48:51;;;;;;;29.83;11.82;;;;;;;17.27;100.00;102043.91;5081960;28;20035;-80
2021/07/17 02:51:16;;;;;;;24.48;10.48;;;;;;;17.23;100.00;102040.72;5071250;28;20485;-81
2021/07/17 02:53:42;;;;;;;26.80;9.82;;;;;;;17.21;100.00;102042.72;5082216;28;20036;-82
2021/07/17 02:56:07;;;;;;;26.80;11.25;;;;;;;17.21;100.00;102047.19;5058927;28;20401;-80
2021/07/17 02:58:33;;;;;;;25.45;9.68;;;;;;;17.21;100.00;102029.47;5072408;28;20074;-80
2021/07/17 03:00:58;;;;;;;23.25;10.40;;;;;;;17.25;100.00;102036.13;5106492;28;20066;-80
2021/07/17 03:03:24;;;;;;;23.58;10.43;;;;;;;17.34;100.00;102044.09;5069615;28;20032;-81
2021/07/17 03:05:50;;;;;;;20.38;9.18;;;;;;;17.23;100.00;102040.72;5093323;28;20489;-80
2021/07/17 03:08:19;;;;;;;27.65;9.80;;;;;;;17.23;100.00;102042.56;5095988;28;20094;-79
2021/07/17 03:10:46;;;;;;;20.98;9.77;;;;;;;17.32;100.00;102054.88;5095330;28;20561;-81
2021/07/17 03:13:11;;;;;;;22.25;9.63;;;;;;;17.39;100.00;102044.47;5081377;28;20032;-82
2021/07/17 03:15:37;;;;;;;27.55;10.25;;;;;;;17.39;100.00;102055.91;5073332;28;20028;-82
2021/07/17 03:18:03;;;;;;;23.20;9.23;;;;;;;17.31;100.00;102047.91;5075441;28;20493;-81
2021/07/17 03:20:28;;;;;;;19.60;9.48;;;;;;;17.31;100.00;102055.88;5089195;28;20035;-80
2021/07/17 03:22:54;;;;;;;15.68;8.38;;;;;;;17.30;100.00;102054.19;5079768;28;20127;-80
2021/07/17 03:25:20;;;;;;;21.42;9.18;;;;;;;17.26;100.00;102053.69;5070479;28;20070;-82
2021/07/17 03:27:45;;;;;;;17.02;8.77;;;;;;;17.18;100.00;102055.44;5079094;28;20036;-81
2021/07/17 03:30:11;;;;;;;23.27;9.93;;;;;;;17.21;100.00;102053.31;5109331;28;20115;-82
2021/07/17 03:32:37;;;;;;;18.48;9.18;;;;;;;17.27;100.00;102051.84;5066734;28;20036;-81
2021/07/17 03:35:03;;;;;;;23.92;9.50;;;;;;;17.21;100.00;102048.00;5084700;28;20058;-79
2021/07/17 03:37:29;;;;;;;25.52;8.90;;;;;;;17.21;100.00;102049.84;5087139;28;20503;-83
2021/07/17 03:39:54;;;;;;;18.02;9.98;;;;;;;17.30;100.00;102049.72;5105171;28;20038;-82
2021/07/17 03:42:20;;;;;;;20.38;9.50;;;;;;;17.30;100.00;102057.69;5075385;28;20024;-82
2021/07/17 03:44:46;;;;;;;24.25;9.75;;;;;;;17.30;100.00;102054.19;5077650;28;20133;-82
2021/07/17 03:47:12;;;;;;;19.45;8.95;;;;;;;17.29;100.00;102048.06;5110306;28;20035;-79
2021/07/17 03:49:37;;;;;;;26.02;10.30;;;;;;;17.39;100.00;102060.38;5092925;28;20032;-80
2021/07/17 03:52:04;;;;;;;20.25;9.80;;;;;;;17.39;100.00;102058.56;5059716;28;20044;-79
2021/07/17 03:54:30;;;;;;;26.08;9.73;;;;;;;17.43;100.00;102053.75;5059803;28;20452;-81
2021/07/17 03:56:55;;;;;;;21.75;10.65;;;;;;;17.44;100.00;102052.75;5058313;28;20126;-80
2021/07/17 03:59:20;;;;;;;22.42;9.93;;;;;;;17.50;100.00;102052.97;5080850;28;20036;-78
2021/07/17 04:01:46;;;;;;;19.95;9.85;;;;;;;17.52;100.00;102050.97;5065133;28;20603;-80
2021/07/17 04:04:13;;;;;;;18.77;9.75;;;;;;;17.51;100.00;102051.13;5062557;28;20030;-81
2021/07/17 04:06:39;;;;;;;15.77;9.00;;;;;;;17.56;100.00;102066.59;5082747;28;20032;-81
2021/07/17 04:09:04;;;;;;;17.77;10.00;;;;;;;17.59;100.00;102060.94;5094681;28;20045;-82
2021/07/17 04:11:30;;;;;;;25.75;9.35;;;;;;;17.65;100.00;102068.25;5094207;28;20035;-81
2021/07/17 04:13:56;;;;;;;19.58;9.23;;;;;;;17.62;100.00;102065.94;5094299;28;20408;-77
2021/07/17 04:16:22;;;;;;;18.17;8.23;;;;;;;17.58;100.00;102065.41;5091323;28;20476;-78
2021/07/17 04:18:47;;;;;;;19.73;8.50;;;;;;;17.69;100.00;102073.09;5057876;28;20052;-79
2021/07/17 04:21:13;;;;;;;15.90;8.63;;;;;;;17.64;100.00;102070.06;5062291;28;20073;-79
2021/07/17 04:23:39;;;;;;;17.60;7.68;;;;;;;17.66;100.00;102070.75;5095916;28;20113;-80
2021/07/17 04:26:05;;;;;;;13.05;7.53;;;;;;;17.75;100.00;102070.78;5077134;28;20036;-80
2021/07/17 04:28:31;;;;;;;20.30;7.05;;;;;;;17.74;100.00;102069.13;5061904;28;20036;-80
2021/07/17 04:30:56;;;;;;;18.13;7.43;;;;;;;17.74;100.00;102069.94;5097884;28;20414;-79
2021/07/17 04:33:22;;;;;;;14.02;7.32;;;;;;;17.81;100.00;102070.13;5086675;28;20418;-79
2021/07/17 04:35:48;;;;;;;11.55;7.00;;;;;;;17.82;100.00;102079.75;5061189;28;20118;-80
2021/07/17 04:38:13;;;;;;;13.15;7.03;;;;;;;17.83;100.00;102076.94;5097158;28;20063;-80
2021/07/17 04:40:39;;;;;;;14.98;6.60;;;;;;;17.92;99.76;102080.47;5080038;28;20063;-80
2021/07/17 04:43:04;;;;;;;20.00;6.32;;;;;;;17.90;98.76;102077.16;5067425;28;20115;-78
2021/07/17 04:45:30;;;;;;;15.23;6.10;;;;;;;17.90;98.71;102077.97;5077135;28;20038;-81
2021/07/17 04:47:55;;;;;;;9.50;5.43;;;;;;;17.88;97.80;102076.50;5087281;28;20053;-80
2021/07/17 04:50:21;;;;;;;9.68;5.07;;;;;;;17.93;96.49;102092.75;5074544;28;20478;-81
2021/07/17 04:52:46;;;;;;;13.10;4.78;;;;;;;17.90;95.65;102088.59;5060175;28;20509;-81
2021/07/17 04:55:12;;;;;;;10.30;5.22;;;;;;;17.97;94.40;102083.47;5088794;28;20093;-80
2021/07/17 04:57:40;;;;;;;12.48;4.78;;;;;;;17.93;94.49;102083.94;5080434;28;20110;-80
2021/07/17 05:00:06;;;;;;;13.35;5.75;;;;;;;17.93;95.90;102092.75;5091975;28;20036;-80
2021/07/17 05:02:31;;;;;;;13.20;4.80;;;;;;;17.98;94.19;102090.44;5096097;28;20028;-79
2021/07/17 05:04:57;;;;;;;9.88;4.50;;;;;;;17.97;92.68;102099.41;5092359;28;20039;-80
2021/07/17 05:07:22;;;;;;;9.18;5.03;;;;;;;18.00;91.31;102095.59;5066695;28;20066;-83
2021/07/17 05:09:48;;;;;;;15.20;5.25;;;;;;;18.03;93.11;102095.28;5070180;28;20119;-78
2021/07/17 05:12:13;;;;;;;10.13;4.55;;;;;;;17.98;92.74;102094.91;5066185;28;20039;-80
2021/07/17 05:14:39;;;;;;;11.68;4.60;;;;;;;18.03;93.60;102092.63;5075750;28;20402;-78
2021/07/17 05:17:05;;;;;;;6.95;3.90;;;;;;;18.03;91.95;102097.94;5078676;28;20032;-77
2021/07/17 05:19:31;;;;;;;7.82;4.03;;;;;;;18.15;91.04;102093.13;5079091;28;20487;-80
2021/07/17 05:21:56;;;;;;;10.48;4.07;;;;;;;18.17;92.14;102094.63;5095005;28;20088;-78
2021/07/17 05:24:23;;;;;;;6.50;3.92;;;;;;;18.24;90.25;102097.47;5076822;28;20035;-77
2021/07/17 05:26:48;;;;;;;8.30;3.88;;;;;;;18.29;88.98;102090.66;5076722;28;20413;-76
2021/07/17 05:29:14;;;;;;;9.40;3.50;;;;;;;18.28;87.51;102104.94;5104758;28;20032;-77
2021/07/17 05:31:39;;;;;;;6.53;3.55;;;;;;;18.43;87.66;102105.09;5079019;28;20032;-77
2021/07/17 05:34:04;;;;;;;8.00;4.05;;;;;;;18.52;90.01;102102.47;5094336;28;20119;-76
2021/07/17 05:36:30;;;;;;;12.95;3.95;;;;;;;18.49;86.35;102108.94;5072829;28;20032;-77
2021/07/17 05:38:56;;;;;;;6.47;3.20;;;;;;;18.48;85.38;102113.41;5067983;28;20509;-77
2021/07/17 05:41:21;;;;;;;9.18;3.40;;;;;;;18.54;86.10;102106.59;5098301;28;20450;-77
2021/07/17 05:43:47;;;;;;;6.97;3.50;;;;;;;18.71;85.59;102122.56;5083472;28;20127;-76
2021/07/17 05:46:12;;;;;;;5.28;2.83;;;;;;;18.73;83.45;102121.38;5061193;28;20024;-77
2021/07/17 05:48:38;;;;;;;7.03;2.97;;;;;;;18.74;82.50;102119.56;5105540;28;20139;-77
2021/07/17 05:51:03;;;;;;;8.05;2.80;;;;;;;18.82;85.04;102133.72;5081822;28;20044;-75
2021/07/17 05:53:29;;;;;;;5.60;3.10;;;;;;;18.83;81.71;102130.03;5081703;28;20042;-77
2021/07/17 05:55:54;;;;;;;6.50;2.78;;;;;;;18.94;80.39;102134.19;5089171;28;20035;-81
2021/07/17 05:58:21;;;;;;;6.65;2.67;;;;;;;19.04;79.54;102134.84;5078076;28;20039;-79
2021/07/17 06:00:46;;;;;;;7.88;2.67;;;;;;;19.06;79.51;102142.63;5091363;28;20024;-79
2021/07/17 06:03:12;;;;;;;4.82;2.22;;;;;;;18.97;77.22;102141.03;5068536;28;20478;-79
2021/07/17 06:05:38;;;;;;;5.18;2.65;;;;;;;19.03;77.97;102143.81;5069473;28;20051;-78
2021/07/17 06:08:04;;;;;;;5.63;2.35;;;;;;;19.10;77.56;102140.47;5069077;28;20028;-77
2021/07/17 06:10:29;;;;;;;7.35;2.22;;;;;;;19.18;76.80;102151.94;5076499;28;20523;-78
2021/07/17 06:12:55;;;;;;;6.95;2.20;;;;;;;19.13;75.95;102142.81;5099794;28;20092;-80
2021/07/17 06:15:20;;;;;;;10.02;2.50;;;;;;;19.19;76.48;102150.97;5062081;28;20041;-78
2021/07/17 06:17:49;;;;;;;8.95;2.45;;;;;;;19.12;77.18;102141.13;5091406;28;20039;-74
2021/07/17 06:20:14;;;;;;;8.48;2.35;;;;;;;19.06;76.86;102158.59;5096747;28;20516;-76
2021/07/17 06:22:40;;;;;;;6.13;1.83;;;;;;;19.25;76.97;102163.56;5075851;28;20035;-77
2021/07/17 06:25:06;;;;;;;7.20;2.17;;;;;;;19.30;76.45;102162.22;5081946;28;20120;-77
2021/07/17 06:27:32;;;;;;;10.15;2.50;;;;;;;19.25;76.36;102160.09;5091831;28;20043;-80
2021/07/17 06:29:57;;;;;;;8.80;2.40;;;;;;;19.44;76.16;102162.34;5092168;28;20027;-79
2021/07/17 06:32:24;;;;;;;3.92;1.80;;;;;;;19.57;74.45;102150.31;5063951;28;20032;-78
2021/07/17 06:34:50;;;;;;;9.07;2.72;;;;;;;19.62;74.54;102155.97;5069726;28;20040;-77
2021/07/17 06:37:16;;;;;;;8.57;2.05;;;;;;;19.66;75.38;102165.28;5090854;28;20050;-79
2021/07/17 06:39:42;;;;;;;10.75;2.20;;;;;;;19.73;75.01;102168.94;5081966;28;20059;-80
2021/07/17 06:42:07;;;;;;;6.60;2.03;;;;;;;19.72;75.12;102166.41;5089116;28;20128;-79
2021/07/17 06:44:33;;;;;;;10.60;2.58;;;;;;;19.77;72.63;102169.44;5074587;28;20031;-80
2021/07/17 06:46:58;;;;;;;7.82;2.47;;;;;;;19.71;75.17;102170.09;5076469;28;20139;-77
2021/07/17 06:49:24;;;;;;;9.35;2.00;;;;;;;19.81;73.05;102166.22;5094091;28;20040;-80
2021/07/17 06:51:49;;;;;;;6.47;2.05;;;;;;;19.89;76.21;102172.53;5075261;28;20118;-77
2021/07/17 06:54:15;;;;;;;8.90;2.13;;;;;;;20.02;72.45;102170.13;5076529;28;20039;-78
2021/07/17 06:56:40;;;;;;;5.70;2.08;;;;;;;20.17;74.35;102160.41;5086430;28;20050;-79
2021/07/17 06:59:06;;;;;;;6.00;1.90;;;;;;;20.28;73.30;102172.47;5077094;28;20581;-82
2021/07/17 07:01:32;;;;;;;9.52;1.92;;;;;;;20.31;70.39;102158.81;5072768;28;20032;-79
2021/07/17 07:03:58;;;;;;;8.27;2.10;;;;;;;20.42;72.43;102161.06;5090099;28;20035;-80
2021/07/17 07:06:24;;;;;;;8.77;2.20;;;;;;;20.45;73.82;102157.22;5093028;28;20044;-80
2021/07/17 07:08:49;;;;;;;10.00;2.38;;;;;;;20.56;72.65;102162.13;5085404;28;20042;-77
2021/07/17 07:11:15;;;;;;;8.13;2.00;;;;;;;20.67;69.81;102160.91;5071385;28;20114;-80
2021/07/17 07:13:40;;;;;;;11.98;2.63;;;;;;;20.85;70.03;102162.44;5071464;28;20512;-80
2021/07/17 07:16:06;;;;;;;8.57;2.20;;;;;;;20.98;70.31;102160.81;5066292;28;20039;-79
2021/07/17 07:18:31;;;;;;;15.82;2.25;;;;;;;21.10;72.03;102163.88;5065034;28;20386;-79
2021/07/17 07:20:57;;;;;;;8.73;2.33;;;;;;;21.17;70.00;102155.94;5056710;28;20056;-79
2021/07/17 07:23:22;;;;;;;7.55;2.20;;;;;;;21.26;70.82;102160.19;5064883;28;20028;-78
2021/07/17 07:25:48;;;;;;;9.70;1.95;;;;;;;21.29;68.00;102162.50;5061582;28;20036;-79
2021/07/17 07:28:13;;;;;;;6.97;1.67;;;;;;;21.34;68.45;102164.63;5087899;28;20039;-78
2021/07/17 07:30:39;;;;;;;6.47;2.30;;;;;;;21.30;68.11;102169.50;5078357;28;20081;-78
2021/07/17 07:33:04;;;;;;;5.75;1.67;;;;;;;21.31;66.78;102163.16;5068037;28;20039;-81
2021/07/17 07:35:30;;;;;;;8.13;1.80;;;;;;;21.51;68.92;102168.81;5078149;28;20055;-79
2021/07/17 07:37:55;;;;;;;10.25;2.45;;;;;;;21.48;68.34;102171.84;5065856;28;20177;-78
2021/07/17 07:40:24;;;;;;;9.00;2.15;;;;;;;21.77;69.79;102178.16;5089747;28;20472;-79
2021/07/17 07:42:50;;;;;;;9.32;2.25;;;;;;;21.64;67.91;102165.47;5078466;28;20092;-80
2021/07/17 07:45:16;;;;;;;8.25;2.10;;;;;;;21.68;68.15;102168.59;5092537;28;20043;-78
2021/07/17 07:47:42;;;;;;;8.32;2.17;;;;;;;21.95;68.19;102169.78;5101759;28;20035;-78
2021/07/17 07:50:10;;;;;;;8.70;2.05;;;;;;;21.93;66.54;102172.63;5084187;28;20108;-80
2021/07/17 07:52:36;;;;;;;7.40;2.42;;;;;;;22.01;68.40;102181.56;5074836;28;20040;-79
2021/07/17 07:55:03;;;;;;;11.52;2.25;;;;;;;22.04;65.47;102175.81;5078746;28;20042;-81
2021/07/17 07:57:28;;;;;;;7.88;2.15;;;;;;;21.81;71.03;102173.28;5080441;28;20042;-77
2021/07/17 07:59:53;;;;;;;7.53;2.38;;;;;;;21.91;69.13;102168.50;5067683;28;20148;-79
2021/07/17 08:02:19;;;;;;;7.88;2.10;;;;;;;21.99;66.05;102175.56;5079445;28;20043;-78
2021/07/17 08:04:45;;;;;;;8.23;2.40;;;;;;;21.97;65.99;102173.09;5078283;28;20031;-77
2021/07/17 08:07:10;;;;;;;9.10;2.17;;;;;;;22.11;65.06;102174.91;5096527;28;20036;-78
2021/07/17 08:09:36;;;;;;;9.65;2.17;;;;;;;22.38;66.18;102183.22;5080045;28;20444;-81
2021/07/17 08:12:02;;;;;;;6.95;2.03;;;;;;;22.22;62.80;102180.75;5075916;28;20024;-80
2021/07/17 08:14:28;;;;;;;6.05;1.95;;;;;;;22.33;64.59;102167.75;5061141;28;20421;-83
2021/07/17 08:16:53;;;;;;;8.82;2.13;;;;;;;22.28;65.50;102167.50;5073899;28;20039;-79
2021/07/17 08:19:19;;;;;;;6.72;1.80;;;;;;;22.55;67.89;102168.59;5078809;28;20080;-78
2021/07/17 08:21:45;;;;;;;5.18;1.83;;;;;;;22.54;64.26;102171.44;5097478;28;20228;-78
2021/07/17 08:24:10;;;;;;;10.65;2.28;;;;;;;22.58;62.38;102167.38;5076792;28;20067;-81
2021/07/17 08:26:37;;;;;;;6.50;1.85;;;;;;;22.84;66.92;102176.66;5061950;28;20028;-82
2021/07/17 08:29:03;;;;;;;4.22;1.80;;;;;;;22.92;64.50;102179.16;5081940;28;20067;-79
2021/07/17 08:31:29;;;;;;;6.28;1.60;;;;;;;23.04;63.75;102174.16;5077093;28;20035;-80
2021/07/17 08:33:54;;;;;;;7.03;2.15;;;;;;;23.11;63.34;102165.16;5092633;28;20039;-76
2021/07/17 08:36:20;;;;;;;10.88;1.90;;;;;;;23.11;63.83;102173.19;5080328;28;20657;-82
2021/07/17 08:38:45;;;;;;;9.85;2.03;;;;;;;23.40;64.63;102170.50;5076413;28;20409;-76
2021/07/17 08:41:11;;;;;;;7.95;2.13;;;;;;;23.32;61.99;102171.47;5094012;28;20028;-80
2021/07/17 08:43:39;;;;;;;8.10;2.20;;;;;;;23.45;62.00;102168.03;5066020;28;20055;-79
2021/07/17 08:46:05;;;;;;;10.18;2.45;;;;;;;23.56;63.45;102172.00;5075286;28;20114;-80
2021/07/17 08:48:32;;;;;;;7.45;1.90;;;;;;;23.65;60.62;102173.50;5076030;28;20126;-80
2021/07/17 08:50:59;;;;;;;5.28;1.58;;;;;;;23.86;63.33;102180.63;5070761;28;20498;-78
2021/07/17 08:53:25;;;;;;;8.25;2.53;;;;;;;23.90;62.17;102182.72;5080316;28;20121;-81
2021/07/17 08:55:51;;;;;;;7.63;1.95;;;;;;;23.86;60.04;102175.25;5078988;28;20123;-81
2021/07/17 08:58:17;;;;;;;7.53;2.00;;;;;;;23.87;61.93;102171.56;5081958;28;20084;-79
2021/07/17 09:00:44;;;;;;;6.10;1.73;;;;;;;23.73;60.47;102172.50;5081558;28;20058;-78
2021/07/17 09:03:13;;;;;;;7.38;2.08;;;;;;;23.87;60.63;102179.59;5078517;28;20466;-81
2021/07/17 09:05:43;;;;;;;7.00;1.80;;;;;;;23.91;62.49;102175.50;5100015;28;20024;-79
2021/07/17 09:08:10;;;;;;;5.47;1.73;;;;;;;24.06;59.29;102184.19;5080626;28;20024;-81
2021/07/17 09:10:44;;;;;;;7.50;2.10;;;;;;;24.18;59.40;102186.28;5091368;28;20380;-81
2021/07/17 09:13:18;;;;;;;7.93;1.90;;;;;;;24.26;59.57;102184.25;5079114;28;20036;-81
2021/07/17 09:15:50;;;;;;;6.00;1.48;;;;;;;24.35;60.83;102184.06;5088046;28;20032;-80
2021/07/17 09:18:29;;;;;;;7.78;1.75;;;;;;;24.43;56.31;102182.03;5087794;28;20043;-81
2021/07/17 09:20:57;;;;;;;5.35;1.23;;;;;;;24.32;57.09;102182.63;5098931;28;20032;-79
2021/07/17 09:23:29;;;;;;;7.90;1.77;;;;;;;24.60;58.18;102184.31;5073209;28;20032;-83
2021/07/17 09:25:56;;;;;;;4.45;1.23;;;;;;;24.81;55.14;102176.09;5097857;28;20036;-79
2021/07/17 09:28:21;;;;;;;5.25;1.38;;;;;;;24.86;56.91;102181.66;5085688;28;20118;-79
2021/07/17 09:30:49;;;;;;;6.38;1.63;;;;;;;24.95;56.70;102178.75;5068606;28;20518;-77
2021/07/17 09:33:16;;;;;;;5.43;1.60;;;;;;;24.67;58.83;102169.06;5088430;28;20059;-77
2021/07/17 09:35:43;;;;;;;5.25;1.40;;;;;;;24.89;57.42;102176.91;5077747;28;20039;-82
2021/07/17 09:38:09;;;;;;;7.95;1.65;;;;;;;24.99;54.18;102169.25;5094161;28;20032;-79
2021/07/17 09:40:52;;;;;;;4.90;1.73;;;;;;;25.09;55.20;102175.03;5096196;28;20035;-78
2021/07/17 09:43:33;;;;;;;4.07;1.40;;;;;;;25.08;56.04;102167.19;5094569;28;20031;-78
2021/07/17 09:46:00;;;;;;;5.75;1.83;;;;;;;25.37;55.95;102173.97;5096895;28;20049;-79
2021/07/17 09:48:31;;;;;;;6.03;1.83;;;;;;;25.52;53.98;102168.34;5068581;28;20027;-79
2021/07/17 09:50:59;;;;;;;4.80;1.50;;;;;;;25.36;54.29;102166.94;5063050;28;20394;-81
2021/07/17 09:53:46;;;;;;;3.67;1.38;;;;;;;25.62;55.22;102174.91;5081332;28;20028;-79
2021/07/17 09:56:15;;;;;;;9.93;1.73;;;;;;;25.50;58.51;102176.59;5083465;28;20020;-79
2021/07/17 09:58:41;;;;;;;7.15;1.58;;;;;;;25.76;54.82;102167.63;5091463;28;20111;-81
2021/07/17 10:01:29;;;;;;;6.25;1.38;;;;;;;25.88;54.03;102177.69;5070046;28;20036;-78
2021/07/17 10:04:10;;;;;;;5.60;1.60;;;;;;;25.98;53.63;102165.47;5067658;28;20030;-80
2021/07/17 10:06:41;;;;;;;5.32;1.60;;;;;;;26.19;52.38;102167.00;5066785;28;20523;-81
2021/07/17 10:09:12;;;;;;;3.58;1.30;;;;;;;25.96;52.34;102164.06;5068315;28;20074;-78
2021/07/17 10:11:44;;;;;;;8.52;1.38;;;;;;;25.94;51.95;102160.78;5089982;28;20031;-83
2021/07/17 10:14:20;;;;;;;5.30;1.30;;;;;;;26.08;52.26;102169.56;5079392;28;20107;-78
2021/07/17 10:16:54;;;;;;;5.22;1.38;;;;;;;25.98;51.17;102153.91;5080165;28;20091;-79
2021/07/17 10:19:22;;;;;;;6.68;1.63;;;;;;;25.99;50.90;102166.31;5080168;28;20039;-78
2021/07/17 10:21:48;;;;;;;5.60;1.67;;;;;;;26.27;54.34;102165.09;5109226;28;20027;-76
2021/07/17 10:24:15;;;;;;;5.07;1.52;;;;;;;26.59;49.75;102168.59;5070338;28;20047;-81
2021/07/17 10:26:42;;;;;;;3.72;1.48;;;;;;;26.02;48.37;102168.56;5114529;28;20036;-79
2021/07/17 10:29:11;;;;;;;3.88;1.17;;;;;;;26.32;50.66;102165.28;5096024;28;20036;-79
2021/07/17 10:31:38;;;;;;;3.53;1.13;;;;;;;26.47;50.84;102163.09;5076738;28;20035;-81
2021/07/17 10:34:04;;;;;;;8.95;1.45;;;;;;;26.80;49.77;102168.25;5078191;28;20028;-79
2021/07/17 10:36:33;;;;;;;8.43;1.35;;;;;;;26.90;49.07;102156.97;5077206;28;20088;-79
2021/07/17 10:39:01;;;;;;;5.15;1.45;;;;;;;26.96;50.88;102166.84;5079199;28;20043;-78
2021/07/17 10:41:30;;;;;;;8.85;1.13;;;;;;;27.03;51.11;102163.28;5076107;28;20547;-79
2021/07/17 10:43:56;;;;;;;5.50;1.55;;;;;;;26.99;48.94;102161.03;5074604;28;20085;-79
2021/07/17 10:46:36;;;;;;;4.75;1.20;;;;;;;26.99;50.21;102154.81;5079014;28;20031;-81
2021/07/17 10:49:04;;;;;;;5.20;1.40;;;;;;;26.95;48.44;102162.50;5093389;28;20020;-79
2021/07/17 10:51:34;;;;;;;8.27;1.65;;;;;;;27.27;48.46;102156.22;5104406;28;20040;-79
2021/07/17 10:54:05;;;;;;;6.30;1.58;;;;;;;27.38;48.54;102158.97;5086330;28;20032;-80
2021/07/17 10:56:31;;;;;;;6.28;1.50;;;;;;;27.41;49.47;102156.88;5080716;28;20754;-79
2021/07/17 10:59:07;;;;;;;8.32;1.60;;;;;;;27.27;48.04;102156.22;5071915;28;20053;-78
2021/07/17 11:01:55;;;;;;;7.50;1.40;;;;;;;26.99;48.64;102150.28;5079671;28;20070;-84
2021/07/17 11:04:32;;;;;;;4.53;1.80;;;;;;;26.93;49.03;102143.06;5083617;28;20172;-81
2021/07/17 11:07:16;;;;;;;7.43;1.50;;;;;;;27.20;49.82;102145.50;5079596;28;20044;-77
2021/07/17 11:10:11;;;;;;;6.03;1.45;;;;;;;27.40;51.32;102145.28;5066064;28;20676;-80
2021/07/17 11:12:50;;;;;;;6.30;1.55;;;;;;;27.62;49.28;102148.34;5068711;28;20069;-79
2021/07/17 11:15:17;;;;;;;4.95;1.40;;;;;;;27.62;49.13;102151.03;5076590;28;20547;-77
2021/07/17 11:17:54;;;;;;;4.40;1.23;;;;;;;27.68;51.18;102152.81;5058368;28;20127;-80